createdAt,value
2018-06-09T00:02:23.164Z,100117.17
2018-06-09T00:04:53.750Z,100119.48
2018-06-09T00:07:24.340Z,100115.03
2018-06-09T00:09:54.970Z,100116.89
2018-06-09T00:12:25.564Z,100123.38
2018-06-09T00:14:56.196Z,100115.27
2018-06-09T00:17:26.757Z,100110.88
2018-06-09T00:19:57.332Z,100105.37
2018-06-09T00:22:27.893Z,100100.65
2018-06-09T00:24:58.908Z,100102.41
2018-06-09T00:27:29.537Z,100106.36
2018-06-09T00:30:00.102Z,100101.16
2018-06-09T00:32:30.686Z,100101.91
2018-06-09T00:35:01.338Z,100097.78
2018-06-09T00:37:31.895Z,100098.91
2018-06-09T00:40:02.556Z,100099.42
2018-06-09T00:42:33.147Z,100099.06
2018-06-09T00:45:03.768Z,100102.38
2018-06-09T00:47:34.363Z,100099.73
2018-06-09T00:50:05.025Z,100099.55
2018-06-09T00:52:35.669Z,100097.48
2018-06-09T00:55:06.350Z,100097.14
2018-06-09T00:57:36.991Z,100099.11
2018-06-09T01:00:07.764Z,100098.11
2018-06-09T01:02:38.394Z,100100.79
2018-06-09T01:05:09.050Z,100103.47
2018-06-09T01:07:39.299Z,100099.38
2018-06-09T01:10:09.833Z,100106.38
2018-06-09T01:12:41.453Z,100110.42
2018-06-09T01:15:12.222Z,100110.36
2018-06-09T01:17:42.828Z,100113.66
2018-06-09T01:20:13.526Z,100112.33
2018-06-09T01:22:44.114Z,100104.78
2018-06-09T01:25:14.713Z,100110.98
2018-06-09T01:27:45.308Z,100104.78
2018-06-09T01:30:15.909Z,100107.60
2018-06-09T01:32:46.458Z,100119.77
2018-06-09T01:35:17.077Z,100111.03
2018-06-09T01:37:47.670Z,100111.66
2018-06-09T01:40:18.261Z,100107.56
2018-06-09T01:42:48.868Z,100103.33
2018-06-09T01:45:19.437Z,100099.09
2018-06-09T01:47:50.064Z,100098.05
2018-06-09T01:50:20.621Z,100100.02
2018-06-09T01:52:51.229Z,100096.41
2018-06-09T01:55:22.180Z,100096.52
2018-06-09T01:57:52.753Z,100091.94
2018-06-09T02:00:23.433Z,100094.62
2018-06-09T02:02:53.999Z,100092.09
2018-06-09T02:05:24.607Z,100090.86
2018-06-09T02:07:55.193Z,100093.69
2018-06-09T02:10:25.851Z,100098.95
2018-06-09T02:12:56.472Z,100101.52
2018-06-09T02:15:27.031Z,100104.08
2018-06-09T02:17:57.562Z,100106.56
2018-06-09T02:20:28.177Z,100099.98
2018-06-09T02:22:58.735Z,100103.91
2018-06-09T02:25:29.305Z,100109.52
2018-06-09T02:27:59.919Z,100098.73
2018-06-09T02:30:30.522Z,100106.90
2018-06-09T02:33:01.772Z,100104.00
2018-06-09T02:35:32.364Z,100111.80
2018-06-09T02:38:03.484Z,100112.79
2018-06-09T02:40:34.040Z,100107.44
2018-06-09T02:43:04.961Z,100106.59
2018-06-09T02:45:35.564Z,100094.06
2018-06-09T02:48:06.170Z,100093.55
2018-06-09T02:50:36.762Z,100087.23
2018-06-09T02:53:07.334Z,100081.66
2018-06-09T02:55:37.910Z,100086.67
2018-06-09T02:58:08.561Z,100090.17
2018-06-09T03:00:39.133Z,100092.90
2018-06-09T03:03:09.750Z,100092.30
2018-06-09T03:05:40.286Z,100094.41
2018-06-09T03:08:41.514Z,100098.41
2018-06-09T03:11:12.081Z,100099.04
2018-06-09T03:13:42.697Z,100093.60
2018-06-09T03:16:13.325Z,100090.78
2018-06-09T03:18:43.947Z,100093.83
2018-06-09T03:21:14.506Z,100097.61
2018-06-09T03:23:45.080Z,100090.22
2018-06-09T03:26:15.653Z,100097.52
2018-06-09T03:28:46.207Z,100098.15
2018-06-09T03:31:16.776Z,100098.25
2018-06-09T03:33:47.358Z,100095.09
2018-06-09T03:36:17.975Z,100088.79
2018-06-09T03:38:48.557Z,100095.47
2018-06-09T03:41:19.160Z,100092.80
2018-06-09T03:43:49.735Z,100097.01
2018-06-09T03:46:20.333Z,100095.33
2018-06-09T03:48:50.906Z,100093.00
2018-06-09T03:51:21.527Z,100086.31
2018-06-09T03:53:52.131Z,100093.14
2018-06-09T03:56:22.766Z,100092.28
2018-06-09T03:58:53.377Z,100093.53
2018-06-09T04:01:23.951Z,100101.69
2018-06-09T04:03:54.517Z,100097.94
2018-06-09T04:06:25.095Z,100096.51
2018-06-09T04:08:55.696Z,100100.14
2018-06-09T04:11:26.253Z,100094.94
2018-06-09T04:13:56.856Z,100102.47
2018-06-09T04:16:27.484Z,100103.81
2018-06-09T04:18:58.037Z,100093.97
2018-06-09T04:21:28.624Z,100097.47
2018-06-09T04:23:59.252Z,100094.69
2018-06-09T04:26:29.797Z,100103.42
2018-06-09T04:29:00.375Z,100107.14
2018-06-09T04:31:30.924Z,100107.89
2018-06-09T04:34:01.627Z,100107.50
2018-06-09T04:36:32.259Z,100108.41
2018-06-09T04:39:02.898Z,100112.41
2018-06-09T04:41:33.462Z,100111.30
2018-06-09T04:44:04.146Z,100112.73
2018-06-09T04:46:34.719Z,100115.48
2018-06-09T04:49:05.314Z,100115.23
2018-06-09T04:51:35.945Z,100122.00
2018-06-09T04:54:06.588Z,100117.74
2018-06-09T04:56:37.168Z,100120.73
2018-06-09T04:59:07.808Z,100118.85
2018-06-09T05:01:38.464Z,100117.83
2018-06-09T05:04:09.093Z,100118.02
2018-06-09T05:06:39.645Z,100116.88
2018-06-09T05:09:10.246Z,100114.22
2018-06-09T05:11:40.824Z,100106.86
2018-06-09T05:14:11.382Z,100100.61
2018-06-09T05:16:42.018Z,100104.22
2018-06-09T05:19:12.611Z,100114.30
2018-06-09T05:21:43.185Z,100116.60
2018-06-09T05:24:13.777Z,100109.65
2018-06-09T05:26:44.362Z,100113.25
2018-06-09T05:29:14.948Z,100116.64
2018-06-09T05:31:45.562Z,100115.52
2018-06-09T05:34:16.202Z,100114.74
2018-06-09T05:36:46.757Z,100112.66
2018-06-09T05:39:17.372Z,100113.28
2018-06-09T05:41:47.990Z,100117.17
2018-06-09T05:44:18.555Z,100114.25
2018-06-09T05:46:50.093Z,100115.59
2018-06-09T05:49:20.753Z,100111.70
2018-06-09T05:51:51.360Z,100120.19
2018-06-09T05:54:22.317Z,100120.46
2018-06-09T05:56:52.953Z,100126.80
2018-06-09T05:59:23.724Z,100126.25
2018-06-09T06:01:54.328Z,100127.66
2018-06-09T06:04:24.965Z,100121.98
2018-06-09T06:06:55.582Z,100122.20
2018-06-09T06:09:26.166Z,100126.49
2018-06-09T06:11:56.802Z,100127.28
2018-06-09T06:14:27.434Z,100126.94
2018-06-09T06:16:57.994Z,100120.92
2018-06-09T06:19:29.002Z,100121.93
2018-06-09T06:21:59.604Z,100126.91
2018-06-09T06:24:29.887Z,100122.08
2018-06-09T06:27:00.354Z,100122.05
2018-06-09T06:29:30.941Z,100119.81
2018-06-09T06:32:01.643Z,100110.52
2018-06-09T06:34:32.269Z,100115.05
2018-06-09T06:37:02.849Z,100114.66
2018-06-09T06:39:33.399Z,100113.53
2018-06-09T06:42:03.981Z,100117.88
2018-06-09T06:44:34.533Z,100127.64
2018-06-09T06:47:05.268Z,100128.61
2018-06-09T06:49:35.852Z,100129.05
2018-06-09T06:52:06.484Z,100133.69
2018-06-09T06:54:37.044Z,100136.48
2018-06-09T06:57:07.613Z,100144.09
2018-06-09T06:59:38.182Z,100152.39
2018-06-09T07:02:08.813Z,100152.94
2018-06-09T07:04:39.416Z,100154.48
2018-06-09T07:07:09.981Z,100151.36
2018-06-09T07:09:40.535Z,100150.91
2018-06-09T07:12:11.128Z,100148.87
2018-06-09T07:14:41.668Z,100145.30
2018-06-09T07:17:12.232Z,100142.99
2018-06-09T07:19:42.837Z,100151.48
2018-06-09T07:22:13.413Z,100155.42
2018-06-09T07:24:43.999Z,100152.30
2018-06-09T07:27:14.596Z,100151.11
2018-06-09T07:29:45.198Z,100148.61
2018-06-09T07:32:15.798Z,100148.08
2018-06-09T07:34:46.350Z,100148.34
2018-06-09T07:37:16.900Z,100142.48
2018-06-09T07:39:47.467Z,100141.16
2018-06-09T07:42:18.022Z,100143.84
2018-06-09T07:44:48.779Z,100134.27
2018-06-09T07:47:50.210Z,100139.05
2018-06-09T07:50:20.741Z,100140.75
2018-06-09T07:52:51.318Z,100140.89
2018-06-09T07:55:21.904Z,100140.58
2018-06-09T07:57:52.484Z,100136.22
2018-06-09T08:00:23.087Z,100143.78
2018-06-09T08:02:53.672Z,100143.96
2018-06-09T08:05:24.223Z,100147.38
2018-06-09T08:07:54.793Z,100147.38
2018-06-09T08:10:25.392Z,100151.92
2018-06-09T08:12:56.008Z,100160.73
2018-06-09T08:15:26.610Z,100159.06
2018-06-09T08:17:57.213Z,100155.37
2018-06-09T08:20:27.774Z,100156.08
2018-06-09T08:22:58.320Z,100150.85
2018-06-09T08:25:28.893Z,100149.84
2018-06-09T08:31:00.653Z,100152.02
2018-06-09T08:33:31.210Z,100156.22
2018-06-09T08:36:01.783Z,100154.89
2018-06-09T08:38:33.454Z,100158.11
2018-06-09T08:41:04.020Z,100157.08
2018-06-09T08:43:34.603Z,100155.58
2018-06-09T08:46:05.299Z,100148.63
2018-06-09T08:48:35.886Z,100142.82
2018-06-09T08:51:06.452Z,100144.27
2018-06-09T08:53:37.029Z,100146.94
2018-06-09T08:56:07.633Z,100152.98
2018-06-09T08:58:38.213Z,100140.25
2018-06-09T09:01:08.870Z,100143.21
2018-06-09T09:03:40.142Z,100139.05
2018-06-09T09:06:10.733Z,100140.56
2018-06-09T09:08:41.348Z,100140.45
2018-06-09T09:11:11.942Z,100147.95
2018-06-09T09:13:42.539Z,100140.16
2018-06-09T09:16:13.158Z,100142.76
2018-06-09T09:18:43.748Z,100146.19
2018-06-09T09:21:14.295Z,100141.01
2018-06-09T09:23:44.865Z,100143.51
2018-06-09T09:26:15.439Z,100144.94
2018-06-09T09:28:46.026Z,100138.50
2018-06-09T09:31:16.570Z,100131.92
2018-06-09T09:33:47.130Z,100138.35
2018-06-09T09:36:17.685Z,100134.44
2018-06-09T09:38:48.284Z,100133.94
2018-06-09T09:41:18.895Z,100137.77
2018-06-09T09:43:49.502Z,100135.38
2018-06-09T09:46:20.069Z,100140.34
2018-06-09T09:48:50.635Z,100132.64
2018-06-09T09:51:21.168Z,100136.10
2018-06-09T09:53:51.783Z,100141.69
2018-06-09T09:56:22.316Z,100139.44
2018-06-09T09:58:52.866Z,100132.14
2018-06-09T10:01:23.459Z,100135.02
2018-06-09T10:03:54.029Z,100133.98
2018-06-09T10:06:24.596Z,100125.20
2018-06-09T10:08:55.138Z,100127.20
2018-06-09T10:11:25.708Z,100137.55
2018-06-09T10:13:56.260Z,100130.03
2018-06-09T10:19:03.513Z,100127.48
2018-06-09T10:21:34.148Z,100124.77
2018-06-09T10:24:04.668Z,100129.94
2018-06-09T10:26:35.248Z,100124.91
2018-06-09T10:29:05.817Z,100122.24
2018-06-09T10:31:36.443Z,100108.77
2018-06-09T10:34:06.940Z,100118.86
2018-06-09T10:36:37.555Z,100122.73
2018-06-09T10:39:09.094Z,100122.64
2018-06-09T10:41:40.809Z,100124.98
2018-06-09T10:44:11.338Z,100111.44
2018-06-09T10:46:41.892Z,100120.12
2018-06-09T10:49:12.435Z,100114.33
2018-06-09T10:51:42.977Z,100110.95
2018-06-09T10:54:13.524Z,100115.96
2018-06-09T10:56:44.106Z,100110.30
2018-06-09T10:59:14.657Z,100112.84
2018-06-09T11:01:44.908Z,100114.63
2018-06-09T11:04:15.298Z,100114.64
2018-06-09T11:06:45.902Z,100112.86
2018-06-09T11:09:16.445Z,100110.26
2018-06-09T11:11:46.995Z,100106.69
2018-06-09T11:14:17.520Z,100108.89
2018-06-09T11:16:48.093Z,100102.91
2018-06-09T11:19:18.344Z,100095.00
2018-06-09T11:21:48.782Z,100094.29
2018-06-09T11:24:19.342Z,100094.63
2018-06-09T11:26:49.907Z,100090.69
2018-06-09T11:29:20.513Z,100089.61
2018-06-09T11:31:51.165Z,100088.95
2018-06-09T11:34:21.781Z,100081.56
2018-06-09T11:36:52.343Z,100080.87
2018-06-09T11:39:22.934Z,100073.59
2018-06-09T11:41:53.574Z,100077.08
2018-06-09T11:44:24.233Z,100072.31
2018-06-09T11:46:54.878Z,100066.84
2018-06-09T11:49:25.491Z,100073.69
2018-06-09T11:51:56.037Z,100060.69
2018-06-09T11:54:26.607Z,100060.38
2018-06-09T11:56:57.191Z,100059.50
2018-06-09T11:59:27.914Z,100054.70
2018-06-09T12:01:58.512Z,100053.77
2018-06-09T12:04:29.166Z,100054.97
2018-06-09T12:07:00.505Z,100049.81
2018-06-09T12:09:31.231Z,100048.34
2018-06-09T12:12:01.874Z,100054.17
2018-06-09T12:14:32.173Z,100051.11
2018-06-09T12:17:02.618Z,100045.45
2018-06-09T12:19:33.176Z,100048.89
2018-06-09T12:22:03.838Z,100046.84
2018-06-09T12:24:34.406Z,100038.30
2018-06-09T12:27:05.049Z,100038.70
2018-06-09T12:29:35.654Z,100038.61
2018-06-09T12:32:06.339Z,100035.17
2018-06-09T12:34:36.934Z,100030.72
2018-06-09T12:37:07.569Z,100033.91
2018-06-09T12:39:38.121Z,100032.89
2018-06-09T12:42:08.723Z,100027.13
2018-06-09T12:44:39.288Z,100026.46
2018-06-09T12:47:09.887Z,100026.89
2018-06-09T12:49:40.483Z,100030.18
2018-06-09T12:52:11.112Z,100026.17
2018-06-09T12:54:41.672Z,100019.63
2018-06-09T12:57:12.330Z,100016.52
2018-06-09T12:59:42.865Z,100013.84
2018-06-09T13:02:13.448Z,100010.68
2018-06-09T13:04:44.037Z,100014.40
2018-06-09T13:07:14.623Z,100008.47
2018-06-09T13:09:45.234Z,100006.52
2018-06-09T13:12:15.809Z,100004.70
2018-06-09T13:14:46.405Z,99998.04
2018-06-09T13:17:16.973Z,100001.90
2018-06-09T13:19:47.625Z,99995.89
2018-06-09T13:22:17.940Z,99993.73
2018-06-09T13:24:48.372Z,99983.17
2018-06-09T13:27:18.965Z,99980.28
2018-06-09T13:29:49.536Z,99980.27
2018-06-09T13:32:20.197Z,99973.02
2018-06-09T13:34:50.857Z,99973.55
2018-06-09T13:37:21.487Z,99968.56
2018-06-09T13:39:52.051Z,99966.11
2018-06-09T13:42:22.617Z,99962.39
2018-06-09T13:44:53.246Z,99959.84
2018-06-09T13:47:23.863Z,99957.29
2018-06-09T13:49:54.474Z,99958.53
2018-06-09T13:52:24.755Z,99955.73
2018-06-09T13:54:55.172Z,99951.48
2018-06-09T13:57:25.783Z,99950.31
2018-06-09T13:59:56.361Z,99951.94
2018-06-09T14:02:26.981Z,99944.30
2018-06-09T14:04:57.574Z,99942.70
2018-06-09T14:07:28.183Z,99938.95
2018-06-09T14:09:58.754Z,99936.34
2018-06-09T14:12:29.367Z,99938.91
2018-06-09T14:14:59.962Z,99936.45
2018-06-09T14:17:30.517Z,99938.66
2018-06-09T14:20:00.805Z,99934.34
2018-06-09T14:22:31.246Z,99934.34
2018-06-09T14:25:01.847Z,99927.92
2018-06-09T14:27:32.474Z,99929.37
2018-06-09T14:30:03.041Z,99926.43
2018-06-09T14:32:33.612Z,99926.03
2018-06-09T14:35:04.242Z,99928.84
2018-06-09T14:37:34.808Z,99927.80
2018-06-09T14:40:06.198Z,99936.28
2018-06-09T14:42:36.732Z,99935.44
2018-06-09T14:45:07.436Z,99940.92
2018-06-09T14:47:38.001Z,99942.95
2018-06-09T14:50:08.635Z,99935.62
2018-06-09T14:52:39.274Z,99936.68
2018-06-09T14:55:09.840Z,99938.25
2018-06-09T14:57:40.462Z,99935.36
2018-06-09T15:00:11.028Z,99943.70
2018-06-09T15:02:41.627Z,99948.16
2018-06-09T15:05:12.239Z,99946.61
2018-06-09T15:07:42.856Z,99945.92
2018-06-09T15:10:13.497Z,99947.72
2018-06-09T15:12:44.097Z,99941.81
2018-06-09T15:15:14.760Z,99945.77
2018-06-09T15:17:45.385Z,99944.98
2018-06-09T15:20:16.003Z,99950.05
2018-06-09T15:22:46.652Z,99944.88
2018-06-09T15:25:17.280Z,99939.33
2018-06-09T15:27:47.994Z,99940.69
2018-06-09T15:30:18.644Z,99940.76
2018-06-09T15:32:49.240Z,99938.17
2018-06-09T15:35:19.902Z,99931.35
2018-06-09T15:37:50.457Z,99937.66
2018-06-09T15:40:21.023Z,99925.95
2018-06-09T15:42:51.618Z,99921.33
2018-06-09T15:45:22.227Z,99921.61
2018-06-09T15:47:52.784Z,99922.70
2018-06-09T15:50:23.404Z,99922.55
2018-06-09T15:52:53.983Z,99927.50
2018-06-09T15:55:24.254Z,99929.69
2018-06-09T15:57:54.692Z,99927.23
2018-06-09T16:00:25.280Z,99927.40
2018-06-09T16:02:55.864Z,99924.45
2018-06-09T16:05:26.588Z,99919.19
2018-06-09T16:07:57.149Z,99917.08
2018-06-09T16:10:27.724Z,99912.55
2018-06-09T16:12:58.259Z,99908.23
2018-06-09T16:15:28.837Z,99909.20
2018-06-09T16:17:59.416Z,99909.48
2018-06-09T16:20:29.999Z,99906.64
2018-06-09T16:23:00.536Z,99912.16
2018-06-09T16:25:31.218Z,99914.40
2018-06-09T16:28:01.848Z,99913.98
2018-06-09T16:30:32.433Z,99911.25
2018-06-09T16:33:02.993Z,99916.78
2018-06-09T16:35:33.723Z,99911.84
2018-06-09T16:38:04.319Z,99915.56
2018-06-09T16:40:34.955Z,99907.94
2018-06-09T16:43:05.517Z,99919.80
2018-06-09T16:45:36.111Z,99911.00
2018-06-09T16:48:06.819Z,99915.49
2018-06-09T16:50:37.394Z,99915.92
2018-06-09T16:53:07.949Z,99912.52
2018-06-09T16:55:38.573Z,99907.77
2018-06-09T16:58:09.178Z,99906.62
2018-06-09T17:00:39.784Z,99914.55
2018-06-09T17:03:10.375Z,99911.64
2018-06-09T17:05:40.953Z,99913.97
2018-06-09T17:08:11.534Z,99908.32
2018-06-09T17:10:42.137Z,99917.13
2018-06-09T17:13:12.674Z,99921.95
2018-06-09T17:15:43.274Z,99922.14
2018-06-09T17:18:13.894Z,99914.05
2018-06-09T17:20:44.436Z,99906.50
2018-06-09T17:23:15.072Z,99912.75
2018-06-09T17:25:45.781Z,99917.28
2018-06-09T17:28:16.402Z,99919.60
2018-06-09T17:30:47.053Z,99917.34
2018-06-09T17:33:17.734Z,99916.14
2018-06-09T17:35:48.343Z,99913.33
2018-06-09T17:38:18.969Z,99915.80
2018-06-09T17:40:49.593Z,99911.77
2018-06-09T17:43:20.211Z,99910.72
2018-06-09T17:45:50.792Z,99908.34
2018-06-09T17:48:21.371Z,99909.95
2018-06-09T17:50:52.012Z,99908.38
2018-06-09T17:53:22.645Z,99902.87
2018-06-09T17:55:53.210Z,99900.75
2018-06-09T17:58:23.758Z,99902.11
2018-06-09T18:00:54.334Z,99901.77
2018-06-09T18:03:24.938Z,99899.14
2018-06-09T18:05:55.513Z,99892.31
2018-06-09T18:08:26.087Z,99894.14
2018-06-09T18:10:56.677Z,99895.42
2018-06-09T18:13:27.293Z,99905.51
2018-06-09T18:15:57.848Z,99901.85
2018-06-09T18:18:28.444Z,99906.89
2018-06-09T18:20:59.017Z,99905.48
2018-06-09T18:23:29.577Z,99912.72
2018-06-09T18:26:00.202Z,99913.89
2018-06-09T18:28:30.756Z,99916.87
2018-06-09T18:31:01.355Z,99918.88
2018-06-09T18:33:31.920Z,99919.30
2018-06-09T18:36:02.477Z,99922.14
2018-06-09T18:38:33.077Z,99915.34
2018-06-09T18:41:03.686Z,99920.89
2018-06-09T18:43:34.263Z,99923.08
2018-06-09T18:46:04.853Z,99926.28
2018-06-09T18:48:35.409Z,99928.23
2018-06-09T18:51:06.045Z,99929.47
2018-06-09T18:53:36.596Z,99930.94
2018-06-09T18:56:07.188Z,99937.67
2018-06-09T18:58:37.824Z,99939.36
2018-06-09T19:01:08.344Z,99946.34
2018-06-09T19:03:38.935Z,99947.04
2018-06-09T19:06:09.481Z,99945.84
2018-06-09T19:08:40.022Z,99946.55
2018-06-09T19:11:10.684Z,99948.81
2018-06-09T19:13:41.228Z,99951.22
2018-06-09T19:16:11.825Z,99953.51
2018-06-09T19:18:42.398Z,99961.98
2018-06-09T19:21:13.020Z,99959.82
2018-06-09T19:23:43.636Z,99964.12
2018-06-09T19:26:14.177Z,99962.65
2018-06-09T19:28:44.757Z,99968.09
2018-06-09T19:31:15.334Z,99972.03
2018-06-09T19:33:45.937Z,99971.41
2018-06-09T19:36:16.512Z,99967.36
2018-06-09T19:38:47.056Z,99970.77
2018-06-09T19:41:17.654Z,99973.34
2018-06-09T19:43:48.297Z,99970.36
2018-06-09T19:46:18.857Z,99974.94
2018-06-09T19:48:49.577Z,99976.52
2018-06-09T19:51:20.170Z,99982.10
2018-06-09T19:53:50.927Z,99984.48
2018-06-09T19:56:21.489Z,99978.08
2018-06-09T19:58:52.084Z,99981.97
2018-06-09T20:01:22.661Z,99977.97
2018-06-09T20:03:53.304Z,99983.89
2018-06-09T20:06:23.926Z,99983.41
2018-06-09T20:08:54.539Z,99981.73
2018-06-09T20:11:25.148Z,99980.72
2018-06-09T20:13:55.721Z,99986.14
2018-06-09T20:16:26.356Z,99990.03
2018-06-09T20:18:56.956Z,99980.60
2018-06-09T20:21:27.565Z,99975.91
2018-06-09T20:23:57.806Z,99971.34
2018-06-09T20:26:28.283Z,99977.27
2018-06-09T20:28:58.857Z,99979.48
2018-06-09T20:31:29.490Z,99983.53
2018-06-09T20:34:00.165Z,99991.98
2018-06-09T20:36:31.760Z,99994.88
2018-06-09T20:39:02.511Z,99999.59
2018-06-09T20:41:33.719Z,99995.36
2018-06-09T20:44:04.380Z,100004.50
2018-06-09T20:46:36.091Z,99998.55
2018-06-09T20:49:06.744Z,99999.41
2018-06-09T20:51:37.409Z,100003.13
2018-06-09T20:54:07.977Z,99997.89
2018-06-09T20:56:38.600Z,99988.94
2018-06-09T20:59:09.228Z,99990.64
2018-06-09T21:01:39.836Z,99982.05
2018-06-09T21:04:10.406Z,99987.11
2018-06-09T21:06:41.027Z,99988.64
2018-06-09T21:09:11.660Z,99983.08
2018-06-09T21:11:42.350Z,99980.38
2018-06-09T21:14:12.897Z,99977.84
2018-06-09T21:16:43.529Z,99972.80
2018-06-09T21:19:14.100Z,99973.47
2018-06-09T21:21:44.796Z,99966.74
2018-06-09T21:24:15.386Z,99970.27
2018-06-09T21:26:51.178Z,99959.48
2018-06-09T21:29:26.904Z,99958.82
2018-06-09T21:31:57.540Z,99963.37
2018-06-09T21:34:50.083Z,99964.05
2018-06-09T21:37:25.696Z,99966.76
2018-06-09T21:40:05.215Z,99969.43
2018-06-09T21:42:40.180Z,99967.23
2018-06-09T21:45:12.046Z,99969.44
2018-06-09T21:47:42.593Z,99967.42
2018-06-09T21:50:13.205Z,99961.18
2018-06-09T21:52:43.804Z,99962.52
2018-06-09T21:55:14.393Z,99957.81
2018-06-09T21:57:45.031Z,99959.80
2018-06-09T22:00:15.635Z,99959.09
2018-06-09T22:02:46.389Z,99960.80
2018-06-09T22:05:17.233Z,99959.28
2018-06-09T22:07:47.831Z,99958.60
2018-06-09T22:10:18.496Z,99955.91
2018-06-09T22:12:49.133Z,99958.08
2018-06-09T22:15:19.706Z,99961.12
2018-06-09T22:17:50.334Z,99968.00
2018-06-09T22:20:21.014Z,99965.97
2018-06-09T22:22:51.702Z,99974.55
2018-06-09T22:25:27.333Z,99981.28
2018-06-09T22:27:57.899Z,99987.16
2018-06-09T22:30:28.497Z,99992.05
2018-06-09T22:32:59.119Z,99987.02
2018-06-09T22:35:29.725Z,99986.29
2018-06-09T22:38:00.286Z,99983.91
2018-06-09T22:40:30.886Z,99978.37
2018-06-09T22:43:01.581Z,99982.23
2018-06-09T22:45:32.142Z,99988.61
2018-06-09T22:48:02.774Z,99983.23
2018-06-09T22:50:33.343Z,99986.95
2018-06-09T22:53:03.941Z,99986.95
2018-06-09T22:55:34.574Z,99991.48
2018-06-09T22:58:05.148Z,99983.89
2018-06-09T23:00:49.015Z,99987.61
2018-06-09T23:03:19.789Z,99989.59
2018-06-09T23:05:50.390Z,99996.77
2018-06-09T23:08:20.971Z,100005.88
2018-06-09T23:10:51.545Z,100003.23
2018-06-09T23:13:22.105Z,99999.08
2018-06-09T23:15:52.645Z,99999.23
2018-06-09T23:18:23.215Z,99996.47
2018-06-09T23:20:53.753Z,99986.37
2018-06-09T23:23:24.352Z,99992.59
2018-06-09T23:25:54.966Z,99994.44
2018-06-09T23:28:25.549Z,99986.92
2018-06-09T23:30:56.109Z,99992.78
2018-06-09T23:33:26.693Z,99992.77
2018-06-09T23:35:57.241Z,99986.69
2018-06-09T23:38:27.806Z,99992.69
2018-06-09T23:40:58.377Z,99995.03
2018-06-09T23:43:29.001Z,99994.67
2018-06-09T23:45:59.607Z,99992.06
2018-06-09T23:48:30.134Z,99998.53
2018-06-09T23:51:00.693Z,99995.14
2018-06-09T23:53:31.261Z,99992.58
2018-06-09T23:56:01.823Z,99983.63
2018-06-09T23:58:32.386Z,99985.58
